Time;durP1;ratioP1;P1;durP2;ratioP2;P2;SDS_P1;SDS_P2;PMS_P1;PMS_P2;Temp;Humidity;BMP_temperature;BMP_pressure;BME280_temperature;BME280_humidity;BME280_pressure;Samples;Min_cycle;Max_cycle;Signal;HPM_P1;HPM_P2
2023/08/17 00:02:13;;;;;;;;;;;;;;;19.26;62.05;101907.10;108589;1258;58782;-89
2023/08/17 00:04:42;;;;;;;;;;;;;;;19.27;62.05;101909.06;107662;1265;124797;-89
2023/08/17 00:07:12;;;;;;;;;;;;;;;19.29;61.91;101909.81;107681;1262;66234;-88
2023/08/17 00:09:42;;;;;;;;;;;;;;;19.31;61.98;101906.06;107343;1265;73513;-89
2023/08/17 00:12:09;;;;;;;;;;;;;;;19.30;61.81;101906.80;107327;1259;125163;-88
2023/08/17 00:14:38;;;;;;;;;;;;;;;19.29;61.88;101909.45;107504;1260;61160;-88
2023/08/17 00:17:05;;;;;;;;;;;;;;;19.29;61.90;101906.77;107769;1258;124598;-88
2023/08/17 00:19:37;;;;;;;;;;;;;;;19.30;61.86;101904.48;107799;1260;67607;-88
2023/08/17 00:22:05;;;;;;;;;;;;;;;19.31;61.92;101900.73;108586;1258;72167;-88
2023/08/17 00:24:32;;;;;;;;;;;;;;;19.31;61.91;101896.83;108648;1260;124631;-88
2023/08/17 00:27:00;;;;;;;;;;;;;;;19.28;61.95;101894.66;108715;1260;59478;-88
2023/08/17 00:29:28;;;;;;;;;;;;;;;19.27;61.95;101891.80;108590;1260;124619;-89
2023/08/17 00:31:55;;;;;;;;;;;;;;;19.23;61.91;101885.55;108746;1262;66617;-89
2023/08/17 00:34:22;;;;;;;;;;;;;;;19.19;61.92;101886.42;108542;1260;124891;-89
2023/08/17 00:36:52;;;;;;;;;;;;;;;19.15;62.02;101883.19;108693;1260;59426;-87
2023/08/17 00:39:26;;;;;;;;;;;;;;;19.10;62.09;101880.30;108600;1259;59347;-89
2023/08/17 00:41:58;;;;;;;;;;;;;;;19.05;62.16;101880.79;108609;1259;124393;-89
2023/08/17 00:44:26;;;;;;;;;;;;;;;18.99;62.23;101878.79;108617;1266;66550;-91
2023/08/17 00:46:53;;;;;;;;;;;;;;;18.93;62.34;101877.67;108406;1260;124289;-89
2023/08/17 00:49:20;;;;;;;;;;;;;;;18.85;62.37;101884.17;108688;1263;59336;-90
2023/08/17 00:51:47;;;;;;;;;;;;;;;18.77;62.57;101889.41;108552;1259;59380;-90
2023/08/17 00:54:17;;;;;;;;;;;;;;;18.71;62.73;101883.48;108382;1259;124607;-90
2023/08/17 00:56:44;;;;;;;;;;;;;;;18.64;62.88;101884.84;107459;1260;65937;-90
2023/08/17 00:59:12;;;;;;;;;;;;;;;18.56;63.13;101889.56;107420;1259;125919;-89
2023/08/17 01:01:39;;;;;;;;;;;;;;;18.48;63.36;101885.92;107551;1259;61691;-88
2023/08/17 01:04:06;;;;;;;;;;;;;;;18.44;63.58;101885.17;107520;1265;60241;-88
2023/08/17 01:06:33;;;;;;;;;;;;;;;18.39;63.89;101888.49;107509;1260;125139;-89
2023/08/17 01:09:12;;;;;;;;;;;;;;;18.35;64.25;101888.08;107753;1262;66682;-88
2023/08/17 01:11:49;;;;;;;;;;;;;;;18.31;64.47;101886.98;107444;1262;124759;-88
2023/08/17 01:14:19;;;;;;;;;;;;;;;18.27;64.65;101888.35;107583;1261;61192;-87
2023/08/17 01:17:06;;;;;;;;;;;;;;;18.22;64.80;101883.33;107710;1260;125576;-88
2023/08/17 01:19:33;;;;;;;;;;;;;;;18.20;65.00;101879.58;107692;1259;74128;-87
2023/08/17 01:22:01;;;;;;;;;;;;;;;18.17;65.07;101879.53;107716;1260;65663;-88
2023/08/17 01:24:28;;;;;;;;;;;;;;;18.14;65.27;101880.73;107764;1262;125063;-89
2023/08/17 01:26:55;;;;;;;;;;;;;;;18.11;65.33;101885.33;107515;1259;61266;-88
2023/08/17 01:29:25;;;;;;;;;;;;;;;18.10;65.49;101888.34;107371;1260;124094;-90
2023/08/17 01:32:20;;;;;;;;;;;;;;;18.07;65.65;101885.28;107624;1263;73734;-88
2023/08/17 01:34:48;;;;;;;;;;;;;;;18.02;65.76;101887.01;107483;1264;124799;-88
2023/08/17 01:37:16;;;;;;;;;;;;;;;17.99;65.85;101891.58;107449;1264;72776;-87
2023/08/17 01:39:43;;;;;;;;;;;;;;;17.92;65.96;101883.84;107620;1264;61397;-87
2023/08/17 01:42:14;;;;;;;;;;;;;;;17.93;66.12;101890.08;107634;1259;124738;-87
2023/08/17 01:44:41;;;;;;;;;;;;;;;17.90;66.26;101892.70;108045;1266;74019;-87
2023/08/17 01:47:09;;;;;;;;;;;;;;;17.85;66.48;101885.89;107843;1259;124282;-88
2023/08/17 01:49:39;;;;;;;;;;;;;;;17.80;66.56;101880.12;107584;1264;73827;-88
2023/08/17 01:52:09;;;;;;;;;;;;;;;17.75;66.85;101878.27;107715;1263;61206;-89
2023/08/17 01:54:36;;;;;;;;;;;;;;;17.72;66.95;101883.38;107434;1264;125626;-90
2023/08/17 01:57:05;;;;;;;;;;;;;;;17.70;67.14;101886.19;107854;1260;74643;-91
2023/08/17 01:59:32;;;;;;;;;;;;;;;17.67;67.32;101887.39;107600;1261;125652;-89
2023/08/17 02:02:16;;;;;;;;;;;;;;;17.65;67.49;101890.91;107561;1260;71522;-89
2023/08/17 02:04:46;;;;;;;;;;;;;;;17.64;67.66;101891.26;107285;1259;125647;-89
2023/08/17 02:07:24;;;;;;;;;;;;;;;17.63;67.84;101896.93;107655;1266;59584;-89
2023/08/17 02:09:52;;;;;;;;;;;;;;;17.63;68.00;101897.28;107910;1261;73418;-89
2023/08/17 02:12:21;;;;;;;;;;;;;;;17.62;68.05;101899.04;107608;1260;125455;-89
2023/08/17 02:14:48;;;;;;;;;;;;;;;17.65;68.27;101901.05;107845;1260;72789;-88
2023/08/17 02:17:18;;;;;;;;;;;;;;;17.67;68.30;101901.41;108583;1263;125834;-89
2023/08/17 02:19:47;;;;;;;;;;;;;;;17.67;68.37;101897.85;108543;1264;59266;-88
2023/08/17 02:22:14;;;;;;;;;;;;;;;17.68;68.49;101897.52;108539;1259;74699;-88
2023/08/17 02:24:46;;;;;;;;;;;;;;;17.66;68.60;101892.89;108516;1266;68124;-88
2023/08/17 02:27:15;;;;;;;;;;;;;;;17.64;68.72;101899.26;108575;1263;72245;-89
2023/08/17 02:29:45;;;;;;;;;;;;;;;17.64;68.90;101899.60;108530;1265;125530;-88
2023/08/17 02:32:14;;;;;;;;;;;;;;;17.65;69.01;101896.78;108642;1260;60374;-88
2023/08/17 02:34:41;;;;;;;;;;;;;;;17.67;69.15;101892.90;108551;1262;126157;-87
2023/08/17 02:37:08;;;;;;;;;;;;;;;17.69;69.22;101899.84;108598;1264;68007;-88
2023/08/17 02:39:35;;;;;;;;;;;;;;;17.70;69.31;101895.77;108703;1264;73554;-89
2023/08/17 02:42:05;;;;;;;;;;;;;;;17.70;69.47;101892.05;108612;1264;124823;-89
2023/08/17 02:44:32;;;;;;;;;;;;;;;17.72;69.54;101890.81;108803;1261;60245;-88
2023/08/17 02:47:02;;;;;;;;;;;;;;;17.71;69.69;101893.66;108618;1265;124294;-89
2023/08/17 02:49:32;;;;;;;;;;;;;;;17.71;69.75;101896.49;108857;1263;65544;-88
2023/08/17 02:51:59;;;;;;;;;;;;;;;17.71;69.88;101897.92;108828;1261;71359;-89
2023/08/17 02:54:26;;;;;;;;;;;;;;;17.69;69.93;101904.98;108612;1267;123513;-89
2023/08/17 02:56:53;;;;;;;;;;;;;;;17.69;70.15;101904.29;108769;1260;59422;-89
2023/08/17 02:59:21;;;;;;;;;;;;;;;17.71;70.21;101902.19;108659;1259;125383;-90
2023/08/17 03:01:48;;;;;;;;;;;;;;;17.73;70.28;101903.27;108915;1261;65765;-90
2023/08/17 03:04:16;;;;;;;;;;;;;;;17.75;70.33;101903.48;108812;1260;71148;-89
2023/08/17 03:06:49;;;;;;;;;;;;;;;17.77;70.40;101909.90;108715;1258;59721;-88
2023/08/17 03:09:16;;;;;;;;;;;;;;;17.80;70.38;101915.27;108020;1261;61212;-88
2023/08/17 03:11:52;;;;;;;;;;;;;;;17.85;70.50;101918.38;108282;1263;124825;-88
2023/08/17 03:14:19;;;;;;;;;;;;;;;17.89;70.48;101914.88;108288;1264;67183;-89
2023/08/17 03:16:46;;;;;;;;;;;;;;;17.91;70.53;101913.14;108203;1260;124433;-89
2023/08/17 03:19:18;;;;;;;;;;;;;;;17.96;70.50;101916.94;107912;1259;59693;-88
2023/08/17 03:21:45;;;;;;;;;;;;;;;18.00;70.57;101918.93;107754;1266;60966;-87
2023/08/17 03:24:15;;;;;;;;;;;;;;;18.03;70.52;101915.26;107540;1261;125184;-87
2023/08/17 03:26:44;;;;;;;;;;;;;;;18.06;70.55;101907.83;107691;1260;66699;-87
2023/08/17 03:29:11;;;;;;;;;;;;;;;18.05;70.48;101902.67;107819;1273;125593;-87
2023/08/17 03:31:41;;;;;;;;;;;;;;;18.03;70.57;101895.71;107706;1264;61216;-87
2023/08/17 03:34:08;;;;;;;;;;;;;;;18.02;70.61;101894.10;107840;1260;59611;-86
2023/08/17 03:36:35;;;;;;;;;;;;;;;18.05;70.82;101891.29;107683;1264;125981;-88
2023/08/17 03:39:02;;;;;;;;;;;;;;;18.06;70.77;101895.40;107929;1263;67247;-87
2023/08/17 03:41:33;;;;;;;;;;;;;;;18.08;70.84;101895.06;107497;1260;125173;-86
2023/08/17 03:44:05;;;;;;;;;;;;;;;18.13;70.96;101896.35;107728;1260;61167;-86
2023/08/17 03:46:33;;;;;;;;;;;;;;;18.17;70.89;101897.65;108133;1266;124701;-87
2023/08/17 03:49:03;;;;;;;;;;;;;;;18.17;70.86;101895.88;108930;1260;74205;-87
2023/08/17 03:51:30;;;;;;;;;;;;;;;18.21;70.88;101897.89;109065;1260;64661;-87
2023/08/17 03:54:03;;;;;;;;;;;;;;;18.23;70.81;101893.66;108824;1259;123138;-87
2023/08/17 03:56:31;;;;;;;;;;;;;;;18.24;70.79;101892.06;108858;1259;58635;-87
2023/08/17 03:58:59;;;;;;;;;;;;;;;18.26;70.75;101893.68;108334;1261;123753;-88
2023/08/17 04:01:28;;;;;;;;;;;;;;;18.29;70.88;101901.34;108160;1262;72802;-87
2023/08/17 04:03:58;;;;;;;;;;;;;;;18.33;70.86;101904.59;107794;1260;66691;-89
2023/08/17 04:06:25;;;;;;;;;;;;;;;18.37;70.88;101903.94;107605;1261;123026;-87
2023/08/17 04:08:54;;;;;;;;;;;;;;;18.41;70.81;101901.66;107990;1261;61010;-87
2023/08/17 04:11:21;;;;;;;;;;;;;;;18.40;70.65;101905.04;107754;1261;125408;-92
2023/08/17 04:19:40;;;;;;;;;;;;;;;18.41;70.72;101910.55;107557;1260;71261;-89
2023/08/17 04:28:19;;;;;;;;;;;;;;;18.59;70.45;101924.61;107857;1261;74531;-88
2023/08/17 04:30:52;;;;;;;;;;;;;;;18.61;70.38;101932.29;107438;1266;123759;-90
2023/08/17 04:33:26;;;;;;;;;;;;;;;18.66;70.35;101937.30;107578;1260;73690;-90
2023/08/17 04:36:09;;;;;;;;;;;;;;;18.71;70.29;101939.85;107326;1267;124843;-91
2023/08/17 04:38:51;;;;;;;;;;;;;;;18.76;70.28;101944.54;107461;1259;61267;-91
2023/08/17 04:41:21;;;;;;;;;;;;;;;18.83;70.16;101956.55;107350;1260;125001;-92
2023/08/17 04:43:56;;;;;;;;;;;;;;;18.90;70.15;101972.80;107437;1258;67196;-88
2023/08/17 04:46:26;;;;;;;;;;;;;;;18.97;70.13;101988.70;107567;1264;71884;-88
2023/08/17 04:48:53;;;;;;;;;;;;;;;19.02;70.14;102000.49;107716;1259;124907;-86
2023/08/17 04:51:20;;;;;;;;;;;;;;;19.08;70.25;102004.83;107542;1259;61222;-87
2023/08/17 04:53:51;;;;;;;;;;;;;;;19.11;70.23;102008.41;107315;1267;124852;-86
2023/08/17 04:56:27;;;;;;;;;;;;;;;19.13;70.34;102007.89;107298;1261;67181;-88
2023/08/17 04:58:58;;;;;;;;;;;;;;;19.16;70.28;102007.39;107261;1263;125036;-88
2023/08/17 05:01:25;;;;;;;;;;;;;;;19.17;70.23;102001.17;107460;1260;59868;-87
2023/08/17 05:03:53;;;;;;;;;;;;;;;19.17;70.20;101986.94;107450;1260;61155;-86
2023/08/17 05:06:38;;;;;;;;;;;;;;;19.18;70.14;101972.54;107528;1264;124850;-86
2023/08/17 05:09:06;;;;;;;;;;;;;;;19.12;69.99;101947.58;107729;1260;65497;-86
2023/08/17 05:11:45;;;;;;;;;;;;;;;19.07;70.18;101946.63;107288;1266;124330;-86
2023/08/17 05:14:18;;;;;;;;;;;;;;;19.04;70.26;101946.25;107700;1263;61123;-89
2023/08/17 05:16:47;;;;;;;;;;;;;;;19.00;70.40;101945.67;107217;1263;124405;-88
2023/08/17 05:19:38;;;;;;;;;;;;;;;18.90;70.48;101947.54;107281;1261;74598;-87
2023/08/17 05:22:08;;;;;;;;;;;;;;;18.79;70.85;101958.27;107380;1261;66079;-87
2023/08/17 05:24:35;;;;;;;;;;;;;;;18.74;71.10;101972.42;107706;1263;124332;-85
2023/08/17 05:27:02;;;;;;;;;;;;;;;18.74;71.39;101974.91;107650;1261;61240;-85
2023/08/17 05:29:29;;;;;;;;;;;;;;;18.75;71.62;101962.11;107344;1264;124146;-90
2023/08/17 05:31:58;;;;;;;;;;;;;;;18.74;71.65;101943.98;107765;1260;74515;-90
2023/08/17 05:34:27;;;;;;;;;;;;;;;18.65;71.74;101928.77;107238;1260;67091;-89
2023/08/17 05:36:56;;;;;;;;;;;;;;;18.53;71.89;101916.02;107183;1266;74092;-90
2023/08/17 05:39:26;;;;;;;;;;;;;;;18.43;72.00;101907.02;107501;1260;61228;-88
2023/08/17 05:41:59;;;;;;;;;;;;;;;18.31;72.36;101894.09;107453;1261;125258;-88
2023/08/17 05:44:26;;;;;;;;;;;;;;;18.18;72.69;101884.17;107820;1260;75658;-87
2023/08/17 05:46:54;;;;;;;;;;;;;;;18.07;73.13;101887.05;107533;1266;125242;-86
2023/08/17 05:49:27;;;;;;;;;;;;;;;18.04;73.48;101886.13;107344;1264;73285;-86
2023/08/17 05:51:55;;;;;;;;;;;;;;;18.02;73.78;101877.94;107475;1259;61790;-87
2023/08/17 05:54:22;;;;;;;;;;;;;;;18.00;74.13;101861.02;107238;1261;125011;-86
2023/08/17 05:56:51;;;;;;;;;;;;;;;17.98;74.45;101862.27;107414;1261;72494;-86
2023/08/17 05:59:19;;;;;;;;;;;;;;;17.97;74.73;101868.82;107718;1261;125234;-87
2023/08/17 06:01:52;;;;;;;;;;;;;;;17.99;74.96;101889.27;107751;1260;71419;-86
2023/08/17 06:04:25;;;;;;;;;;;;;;;18.00;75.20;101890.89;107956;1260;61246;-87
2023/08/17 06:06:54;;;;;;;;;;;;;;;18.01;75.47;101888.94;107514;1260;123655;-86
2023/08/17 06:09:22;;;;;;;;;;;;;;;18.05;75.63;101885.95;107687;1259;74764;-87
2023/08/17 06:12:23;;;;;;;;;;;;;;;18.09;75.88;101886.91;107681;1260;123815;-88
2023/08/17 06:15:24;;;;;;;;;;;;;;;18.14;76.05;101891.05;107465;1270;71667;-89
2023/08/17 06:18:20;;;;;;;;;;;;;;;;;;;;;
2023/08/17 06:24:31;;;;;;;;;;;;;;;18.38;76.33;101897.89;106562;1274;125008;-92
2023/08/17 06:27:01;;;;;;;;;;;;;;;18.42;76.35;101897.23;106705;1274;67003;-89
2023/08/17 06:29:35;;;;;;;;;;;;;;;18.50;76.56;101905.30;106556;1274;123775;-89
2023/08/17 06:32:02;;;;;;;;;;;;;;;18.55;76.50;101916.75;106489;1273;61301;-87
2023/08/17 06:34:29;;;;;;;;;;;;;;;18.64;76.61;101923.05;106268;1279;125081;-87
2023/08/17 06:37:15;;;;;;;;;;;;;;;18.76;76.62;101928.87;106711;1273;73355;-89
2023/08/17 06:39:44;;;;;;;;;;;;;;;18.86;76.48;101927.94;106570;1273;68619;-87
2023/08/17 06:42:16;;;;;;;;;;;;;;;18.98;76.39;101928.05;106650;1274;123829;-88
2023/08/17 06:44:52;;;;;;;;;;;;;;;19.04;76.27;101929.89;106126;1274;61273;-84
2023/08/17 06:47:20;;;;;;;;;;;;;;;19.15;76.07;101940.30;106042;1277;125224;-86
2023/08/17 06:50:09;;;;;;;;;;;;;;;19.22;76.09;101937.86;106203;1273;73249;-87
2023/08/17 06:52:51;;;;;;;;;;;;;;;19.34;75.98;101944.72;107032;1271;67126;-87
2023/08/17 06:55:18;;;;;;;;;;;;;;;19.40;75.86;101945.13;106823;1269;72475;-88
2023/08/17 06:57:57;;;;;;;;;;;;;;;19.50;75.78;101949.66;106836;1267;61245;-89
2023/08/17 07:00:38;;;;;;;;;;;;;;;19.58;75.52;101955.41;107002;1261;124923;-88
2023/08/17 07:03:07;;;;;;;;;;;;;;;19.66;75.44;101949.40;107651;1260;73450;-87
2023/08/17 07:09:27;;;;;;;;;;;;;;;19.79;75.01;101954.52;107483;1259;72782;-84
2023/08/17 07:15:15;;;;;;;;;;;;;;;19.81;74.55;101964.48;107594;1257;61036;-84
2023/08/17 07:17:50;;;;;;;;;;;;;;;19.85;74.49;101959.17;107466;1261;123875;-84
2023/08/17 07:20:30;;;;;;;;;;;;;;;19.90;74.37;101963.83;107408;1257;66527;-85
2023/08/17 07:22:59;;;;;;;;;;;;;;;19.95;74.42;101965.83;107333;1257;124880;-83
2023/08/17 07:25:34;;;;;;;;;;;;;;;20.04;74.49;101971.94;107582;1257;59583;-83
2023/08/17 07:28:15;;;;;;;;;;;;;;;20.17;74.41;101975.91;107712;1257;59934;-85
2023/08/17 07:30:50;;;;;;;;;;;;;;;20.24;74.22;101981.83;107379;1259;125061;-84
2023/08/17 07:33:51;;;;;;;;;;;;;;;20.30;74.31;101975.98;107805;1260;66891;-88
2023/08/17 07:36:55;;;;;;;;;;;;;;;20.36;74.07;101974.04;107680;1257;123816;-86
2023/08/17 07:39:42;;;;;;;;;;;;;;;20.37;74.17;101978.31;107552;1257;60489;-86
2023/08/17 07:46:09;;;;;;;;;;;;;;;20.58;74.16;101980.90;107312;1260;73741;-86
2023/08/17 07:48:38;;;;;;;;;;;;;;;20.67;73.80;101981.48;106748;1260;124842;-88
2023/08/17 07:51:14;;;;;;;;;;;;;;;20.76;73.98;101982.04;107075;1260;71223;-84
2023/08/17 07:53:41;;;;;;;;;;;;;;;20.90;73.83;101983.68;106807;1259;124833;-83
2023/08/17 07:56:34;;;;;;;;;;;;;;;21.04;73.72;101984.06;107277;1257;59775;-90
2023/08/17 07:59:45;;;;;;;;;;;;;;;21.15;73.24;101980.33;106939;1264;124738;-90
2023/08/17 08:02:32;;;;;;;;;;;;;;;21.26;73.19;101981.22;107286;1264;67833;-90
2023/08/17 08:05:14;;;;;;;;;;;;;;;21.44;72.99;101989.11;107043;1262;124615;-90
2023/08/17 08:07:52;;;;;;;;;;;;;;;21.55;72.46;101987.67;107071;1264;61375;-89
2023/08/17 08:10:39;;;;;;;;;;;;;;;21.55;72.23;101985.53;107305;1263;61572;-92
2023/08/17 08:13:25;;;;;;;;;;;;;;;21.66;72.41;101980.52;106968;1264;73836;-90
2023/08/17 08:15:59;;;;;;;;;;;;;;;21.73;71.94;101969.26;107353;1264;65817;-92
2023/08/17 08:18:45;;;;;;;;;;;;;;;21.84;72.02;101972.63;107046;1264;123205;-90
2023/08/17 08:21:24;;;;;;;;;;;;;;;21.88;71.79;101971.73;107667;1263;61169;-90
2023/08/17 08:24:00;;;;;;;;;;;;;;;22.04;71.94;101975.44;107490;1264;123891;-90
2023/08/17 08:29:20;;;;;;;;;;;;;;;22.34;71.16;101979.11;107693;1262;123953;-91
2023/08/17 08:32:02;;;;;;;;;;;;;;;22.45;70.85;101969.59;107647;1263;71177;-92
2023/08/17 08:34:31;;;;;;;;;;;;;;;22.56;70.37;101964.35;107991;1264;61046;-89
2023/08/17 08:36:58;;;;;;;;;;;;;;;22.59;70.10;101960.75;107869;1266;124315;-90
2023/08/17 08:39:32;;;;;;;;;;;;;;;22.70;70.16;101956.20;108500;1258;73361;-93
2023/08/17 08:42:16;;;;;;;;;;;;;;;22.77;69.40;101958.67;108344;1260;124166;-90
2023/08/17 08:44:47;;;;;;;;;;;;;;;22.72;68.78;101958.87;108345;1260;73752;-90
2023/08/17 08:47:14;;;;;;;;;;;;;;;22.71;69.12;101954.07;107926;1257;124304;-90
2023/08/17 08:49:50;;;;;;;;;;;;;;;22.92;69.22;101946.75;107981;1260;61137;-90
2023/08/17 08:52:19;;;;;;;;;;;;;;;23.05;68.27;101946.88;108111;1260;74027;-92
2023/08/17 08:54:55;;;;;;;;;;;;;;;23.10;67.63;101950.95;107805;1260;123305;-88
2023/08/17 08:57:41;;;;;;;;;;;;;;;23.14;67.34;101957.36;108056;1261;72742;-90
2023/08/17 09:03:11;;;;;;;;;;;;;;;23.10;66.92;101949.14;108281;1259;79597;-88
2023/08/17 09:05:42;;;;;;;;;;;;;;;23.13;66.54;101949.31;108006;1260;124774;-87
2023/08/17 09:08:12;;;;;;;;;;;;;;;23.20;66.58;101945.67;107892;1260;67115;-86
2023/08/17 09:10:39;;;;;;;;;;;;;;;23.17;66.07;101947.85;107645;1266;71425;-88
2023/08/17 09:13:06;;;;;;;;;;;;;;;23.10;66.00;101943.61;107670;1259;59387;-87
2023/08/17 09:15:36;;;;;;;;;;;;;;;23.09;65.64;101945.58;107765;1260;59729;-89
2023/08/17 09:18:07;;;;;;;;;;;;;;;23.04;65.39;101944.02;107711;1263;124861;-87
2023/08/17 09:20:44;;;;;;;;;;;;;;;23.09;65.58;101942.55;107762;1259;67420;-89
2023/08/17 09:23:16;;;;;;;;;;;;;;;23.16;65.23;101938.91;107674;1262;123822;-89
2023/08/17 09:25:44;;;;;;;;;;;;;;;23.23;65.11;101939.91;107603;1267;59572;-89
2023/08/17 09:28:12;;;;;;;;;;;;;;;23.33;64.86;101939.65;107797;1260;61658;-89
2023/08/17 09:30:53;;;;;;;;;;;;;;;23.39;64.38;101943.55;107833;1259;124572;-89
2023/08/17 09:33:20;;;;;;;;;;;;;;;23.47;64.10;101952.77;107783;1260;66435;-88
2023/08/17 09:36:10;;;;;;;;;;;;;;;23.37;63.42;101946.05;107746;1259;123746;-87
2023/08/17 09:38:48;;;;;;;;;;;;;;;23.28;63.69;101947.39;107803;1261;59629;-88
2023/08/17 09:41:26;;;;;;;;;;;;;;;23.27;63.77;101941.85;107984;1260;123980;-85
2023/08/17 09:44:01;;;;;;;;;;;;;;;23.28;63.63;101944.52;107388;1266;73973;-88
2023/08/17 09:46:31;;;;;;;;;;;;;;;23.33;63.70;101943.05;107448;1260;66598;-89
2023/08/17 09:48:58;;;;;;;;;;;;;;;23.41;63.30;101940.48;107690;1259;124501;-89
2023/08/17 09:51:27;;;;;;;;;;;;;;;23.45;63.24;101942.23;107626;1261;61203;-89
2023/08/17 09:53:54;;;;;;;;;;;;;;;23.44;63.03;101942.95;107451;1259;124844;-89
2023/08/17 09:56:22;;;;;;;;;;;;;;;23.46;63.14;101952.08;107732;1260;74483;-89
2023/08/17 09:58:52;;;;;;;;;;;;;;;23.49;62.57;101950.43;107756;1259;123298;-88
2023/08/17 10:01:29;;;;;;;;;;;;;;;23.47;62.75;101947.77;108796;1259;73159;-88
2023/08/17 10:03:57;;;;;;;;;;;;;;;23.54;62.71;101938.38;107935;1260;59561;-89
2023/08/17 10:06:27;;;;;;;;;;;;;;;23.68;62.60;101937.52;108520;1261;124561;-89
2023/08/17 10:09:12;;;;;;;;;;;;;;;23.91;62.42;101943.02;108707;1260;77207;-88
2023/08/17 10:11:43;;;;;;;;;;;;;;;23.98;61.64;101939.55;108617;1260;125008;-90
2023/08/17 10:14:22;;;;;;;;;;;;;;;24.04;61.40;101937.50;108662;1264;73120;-89
2023/08/17 10:17:02;;;;;;;;;;;;;;;;;;;;;
2023/08/17 10:19:40;;;;;;;;;;;;;;;24.30;60.89;101933.59;108755;1262;59313;-88
2023/08/17 10:22:42;;;;;;;;;;;;;;;24.54;60.22;101931.84;108780;1259;75967;-90
2023/08/17 10:25:11;;;;;;;;;;;;;;;24.65;59.89;101933.50;108468;1260;66949;-89
2023/08/17 10:27:40;;;;;;;;;;;;;;;24.72;59.54;101936.43;108638;1259;71165;-89
2023/08/17 10:30:15;;;;;;;;;;;;;;;24.62;58.94;101938.02;108657;1260;124619;-89
2023/08/17 10:32:45;;;;;;;;;;;;;;;24.52;59.01;101928.81;108699;1259;60096;-87
2023/08/17 10:35:12;;;;;;;;;;;;;;;24.46;58.79;101930.14;108403;1266;124828;-88
2023/08/17 10:37:40;;;;;;;;;;;;;;;24.26;58.22;101927.71;108550;1260;66368;-88
2023/08/17 10:40:08;;;;;;;;;;;;;;;24.05;58.82;101924.02;108717;1259;72467;-89
2023/08/17 10:42:37;;;;;;;;;;;;;;;23.95;58.90;101928.84;108605;1259;123664;-89
2023/08/17 10:45:24;;;;;;;;;;;;;;;23.88;58.94;101933.03;108873;1259;60928;-89
2023/08/17 10:48:13;;;;;;;;;;;;;;;23.73;59.14;101933.70;107966;1260;123736;-88
2023/08/17 10:50:43;;;;;;;;;;;;;;;23.69;59.43;101930.33;108569;1263;67698;-89
2023/08/17 10:53:11;;;;;;;;;;;;;;;23.71;59.76;101926.02;108567;1263;123890;-89
2023/08/17 10:55:40;;;;;;;;;;;;;;;23.85;59.96;101924.63;108643;1259;58947;-89
2023/08/17 10:58:11;;;;;;;;;;;;;;;23.95;59.71;101917.69;108721;1265;59130;-89
2023/08/17 11:00:38;;;;;;;;;;;;;;;24.00;59.61;101914.95;108175;1260;124210;-88
2023/08/17 11:03:12;;;;;;;;;;;;;;;23.97;59.61;101916.05;107810;1260;67246;-89
2023/08/17 11:05:43;;;;;;;;;;;;;;;23.85;59.54;101913.70;107867;1259;124308;-94
2023/08/17 11:08:15;;;;;;;;;;;;;;;23.71;59.53;101911.50;108179;1261;59793;-91
2023/08/17 11:11:06;;;;;;;;;;;;;;;23.64;60.00;101909.60;108158;1259;123181;-90
2023/08/17 11:13:44;;;;;;;;;;;;;;;23.61;59.83;101906.96;108743;1261;74366;-90
2023/08/17 11:16:24;;;;;;;;;;;;;;;23.54;59.55;101905.41;108545;1261;67466;-90
2023/08/17 11:18:52;;;;;;;;;;;;;;;23.42;59.83;101896.59;107638;1259;125030;-92
2023/08/17 11:21:19;;;;;;;;;;;;;;;23.54;60.16;101895.20;107947;1265;61937;-90
2023/08/17 11:23:49;;;;;;;;;;;;;;;23.62;60.22;101893.14;107964;1259;124591;-89
2023/08/17 11:26:19;;;;;;;;;;;;;;;23.76;60.46;101896.40;107873;1259;74614;-93
2023/08/17 11:28:47;;;;;;;;;;;;;;;23.91;60.36;101898.58;107602;1260;124750;-88
2023/08/17 11:31:17;;;;;;;;;;;;;;;23.97;59.99;101895.27;107901;1265;72745;-90
2023/08/17 11:33:46;;;;;;;;;;;;;;;23.91;59.90;101890.34;107890;1259;61132;-91
2023/08/17 11:36:13;;;;;;;;;;;;;;;23.79;59.71;101884.00;107578;1265;123479;-90
2023/08/17 11:38:42;;;;;;;;;;;;;;;23.71;59.94;101887.67;107673;1259;74786;-90
2023/08/17 11:41:10;;;;;;;;;;;;;;;23.62;59.76;101882.58;107799;1262;123203;-90
2023/08/17 11:43:41;;;;;;;;;;;;;;;23.50;60.04;101881.45;107650;1259;499824;-90
2023/08/17 11:46:08;;;;;;;;;;;;;;;23.41;59.99;101879.20;108720;1260;59356;-90
2023/08/17 11:48:37;;;;;;;;;;;;;;;23.30;60.26;101879.33;108785;1259;124461;-89
2023/08/17 11:51:04;;;;;;;;;;;;;;;23.24;60.83;101879.91;108914;1267;74027;-90
2023/08/17 11:53:35;;;;;;;;;;;;;;;23.16;60.99;101879.09;108817;1260;123246;-90
2023/08/17 11:56:02;;;;;;;;;;;;;;;23.09;60.77;101881.48;108963;1259;72300;-90
2023/08/17 11:58:39;;;;;;;;;;;;;;;23.03;60.67;101880.11;108972;1260;58328;-90
2023/08/17 12:01:08;;;;;;;;;;;;;;;23.03;60.76;101882.06;108594;1259;123090;-90
2023/08/17 12:03:35;;;;;;;;;;;;;;;23.06;61.06;101887.42;108639;1260;75185;-92
2023/08/17 12:06:03;;;;;;;;;;;;;;;23.07;60.66;101877.39;108504;1262;124343;-92
2023/08/17 12:08:30;;;;;;;;;;;;;;;23.05;60.81;101877.22;108449;1261;73766;-92
2023/08/17 12:10:57;;;;;;;;;;;;;;;23.07;60.81;101882.05;108572;1259;124739;-91
2023/08/17 12:13:32;;;;;;;;;;;;;;;23.05;60.65;101878.12;108670;1259;59954;-91
2023/08/17 12:18:56;;;;;;;;;;;;;;;23.02;61.36;101874.71;107798;1259;124377;-88
2023/08/17 12:21:30;;;;;;;;;;;;;;;23.11;61.45;101879.32;107609;1260;71219;-90
2023/08/17 12:24:04;;;;;;;;;;;;;;;23.15;61.37;101878.75;107471;1260;124289;-91
2023/08/17 12:26:46;;;;;;;;;;;;;;;23.13;61.55;101879.48;107388;1259;61282;-89
2023/08/17 12:29:48;;;;;;;;;;;;;;;23.07;61.16;101876.13;107314;1259;124339;-90
2023/08/17 12:33:41;;;;;;;;;;;;;;;22.98;60.98;101870.27;106553;1270;66837;-90
2023/08/17 12:37:11;;;;;;;;;;;;;;;22.91;61.49;101867.11;105360;1279;124257;-91
2023/08/17 12:39:46;;;;;;;;;;;;;;;22.98;61.77;101871.89;105675;1283;61224;-93
2023/08/17 12:42:24;;;;;;;;;;;;;;;23.02;61.50;101875.98;105716;1283;124140;-92
2023/08/17 12:48:00;;;;;;;;;;;;;;;23.06;61.18;101880.98;105684;1280;123038;-90
2023/08/17 12:50:36;;;;;;;;;;;;;;;23.04;60.90;101879.02;105778;1280;71880;-89
2023/08/17 12:53:03;;;;;;;;;;;;;;;22.94;60.94;101873.70;105546;1282;124409;-90
2023/08/17 12:55:38;;;;;;;;;;;;;;;22.90;61.20;101876.60;105492;1279;61287;-91
2023/08/17 13:04:33;;;;;;;;;;;;;;;;;;;;;
2023/08/17 13:07:50;;;;;;;;;;;;;;;22.82;61.37;101873.45;107570;1262;61283;-92
2023/08/17 13:11:24;;;;;;;;;;;;;;;22.92;61.16;101867.46;107774;1267;124327;-93
2023/08/17 13:15:11;;;;;;;;;;;;;;;;;;;;;
2023/08/17 13:27:43;;;;;;;;;;;;;;;23.04;60.57;101869.02;107481;1273;60197;-94
2023/08/17 13:34:18;;;;;;;;;;;;;;;23.12;60.58;101877.88;106898;1273;66632;-93
2023/08/17 13:36:53;;;;;;;;;;;;;;;23.20;60.58;101876.91;106057;1280;124384;-93
2023/08/17 13:46:25;;;;;;;;;;;;;;;23.11;60.46;101886.66;107268;1273;74441;-92
2023/08/17 13:58:49;;;;;;;;;;;;;;;22.57;60.63;101884.73;107404;1261;60781;-89
2023/08/17 14:08:49;;;;;;;;;;;;;;;22.65;60.46;101879.30;107142;1262;71940;-89
2023/08/17 14:11:55;;;;;;;;;;;;;;;22.61;60.30;101878.07;106918;1260;124244;-86
2023/08/17 14:14:22;;;;;;;;;;;;;;;22.58;60.79;101882.75;107264;1260;61206;-84
2023/08/17 14:20:08;;;;;;;;;;;;;;;22.61;61.30;101887.55;106981;1260;67407;-87
2023/08/17 14:23:09;;;;;;;;;;;;;;;22.54;61.41;101886.00;106932;1265;72700;-88
2023/08/17 14:49:24;;;;;;;;;;;;;;;22.24;63.34;101862.91;107174;1260;124538;-89
2023/08/17 14:52:14;;;;;;;;;;;;;;;22.14;63.36;101858.66;107106;1260;66340;-89